createdAt,value
2019-01-16T00:00:09.164Z,4.50
2019-01-16T00:03:05.406Z,4.50
2019-01-16T00:05:53.981Z,4.50
2019-01-16T00:08:40.813Z,4.50
2019-01-16T00:11:24.112Z,4.60
2019-01-16T00:14:15.925Z,4.60
2019-01-16T00:17:01.855Z,4.60
2019-01-16T00:19:50.108Z,4.60
2019-01-16T00:22:47.300Z,4.60
2019-01-16T00:25:28.002Z,4.60
2019-01-16T00:28:13.611Z,4.60
2019-01-16T00:30:52.423Z,4.50
2019-01-16T00:33:38.392Z,4.50
2019-01-16T00:36:26.647Z,4.60
2019-01-16T00:39:07.053Z,4.60
2019-01-16T00:41:53.796Z,4.60
2019-01-16T00:44:29.859Z,4.60
2019-01-16T00:47:16.466Z,4.50
2019-01-16T00:50:03.086Z,4.60
2019-01-16T00:52:48.446Z,4.60
2019-01-16T00:55:45.631Z,4.60
2019-01-16T00:58:31.540Z,4.60
2019-01-16T01:01:34.637Z,4.60
2019-01-16T01:04:28.840Z,4.70
2019-01-16T01:07:32.199Z,4.70
2019-01-16T01:10:29.768Z,4.70
2019-01-16T01:13:20.390Z,4.70
2019-01-16T01:16:12.582Z,4.80
2019-01-16T01:19:09.825Z,4.70
2019-01-16T01:21:56.708Z,4.70
2019-01-16T01:24:38.123Z,4.80
2019-01-16T01:27:16.106Z,4.90
2019-01-16T01:29:58.017Z,4.90
2019-01-16T01:32:53.488Z,4.90
2019-01-16T01:35:44.685Z,4.90
2019-01-16T01:38:43.745Z,4.90
2019-01-16T01:41:32.128Z,4.90
2019-01-16T01:44:10.634Z,5.00
2019-01-16T01:46:50.789Z,5.00
2019-01-16T01:49:37.793Z,5.00
2019-01-16T01:52:41.280Z,5.10
2019-01-16T01:55:20.673Z,5.20
2019-01-16T01:58:21.022Z,5.20
2019-01-16T02:01:09.453Z,5.20
2019-01-16T02:03:56.594Z,5.20
2019-01-16T02:06:35.108Z,5.30
2019-01-16T02:09:24.653Z,5.20
2019-01-16T02:12:19.553Z,5.30
2019-01-16T02:15:10.230Z,5.30
2019-01-16T02:17:53.349Z,5.40
2019-01-16T02:20:38.039Z,5.40
2019-01-16T02:23:22.101Z,5.40
2019-01-16T02:26:25.399Z,5.40
2019-01-16T02:29:19.087Z,5.50
2019-01-16T02:32:19.077Z,5.50
2019-01-16T02:35:09.245Z,5.50
2019-01-16T02:37:49.327Z,5.50
2019-01-16T02:40:28.804Z,5.60
2019-01-16T02:43:14.328Z,5.60
2019-01-16T02:46:02.368Z,5.50
2019-01-16T02:48:38.292Z,5.60
2019-01-16T02:51:29.349Z,5.60
2019-01-16T02:54:16.164Z,5.60
2019-01-16T02:57:06.082Z,5.50
2019-01-16T02:59:48.398Z,5.50
2019-01-16T03:02:42.434Z,5.50
2019-01-16T03:05:39.066Z,5.40
2019-01-16T03:08:14.952Z,5.40
2019-01-16T03:11:01.846Z,5.30
2019-01-16T03:13:38.567Z,5.30
2019-01-16T03:16:23.427Z,5.30
2019-01-16T03:19:10.245Z,5.30
2019-01-16T03:21:57.360Z,5.30
2019-01-16T03:24:42.778Z,5.30
2019-01-16T03:27:30.899Z,5.30
2019-01-16T03:30:22.153Z,5.30
2019-01-16T03:33:03.341Z,5.20
2019-01-16T03:35:50.170Z,5.30
2019-01-16T03:38:37.193Z,5.20
2019-01-16T03:41:29.355Z,5.20
2019-01-16T03:44:04.308Z,5.10
2019-01-16T03:46:48.791Z,5.00
2019-01-16T03:49:31.986Z,5.00
2019-01-16T03:52:26.208Z,5.00
2019-01-16T03:55:14.228Z,5.00
2019-01-16T03:57:57.557Z,4.90
2019-01-16T04:00:52.232Z,5.00
2019-01-16T04:03:35.613Z,5.00
2019-01-16T04:06:18.964Z,5.00
2019-01-16T04:09:06.574Z,4.90
2019-01-16T04:11:53.805Z,4.90
2019-01-16T04:14:39.700Z,5.00
2019-01-16T04:17:17.166Z,4.90
2019-01-16T04:19:54.320Z,4.90
2019-01-16T04:22:41.042Z,4.90
2019-01-16T04:25:27.742Z,5.00
2019-01-16T04:28:21.668Z,5.00
2019-01-16T04:31:12.697Z,5.00
2019-01-16T04:34:04.589Z,4.90
2019-01-16T04:37:01.528Z,5.00
2019-01-16T04:39:48.346Z,5.00
2019-01-16T04:42:39.494Z,5.00
2019-01-16T04:45:22.855Z,5.00
2019-01-16T04:48:19.957Z,5.00
2019-01-16T04:51:14.233Z,4.90
2019-01-16T04:54:03.874Z,5.00
2019-01-16T04:56:52.664Z,4.90
2019-01-16T04:59:40.114Z,4.90
2019-01-16T05:02:40.448Z,5.00
2019-01-16T05:05:34.488Z,5.00
2019-01-16T05:08:22.422Z,5.00
2019-01-16T05:11:10.382Z,5.00
2019-01-16T05:13:57.562Z,5.10
2019-01-16T05:16:49.353Z,5.00
2019-01-16T05:19:49.438Z,5.10
2019-01-16T05:22:35.084Z,5.10
2019-01-16T05:25:26.327Z,5.20
2019-01-16T05:28:08.856Z,5.20
2019-01-16T05:30:46.129Z,5.20
2019-01-16T05:33:24.832Z,5.20
2019-01-16T05:36:11.693Z,5.30
2019-01-16T05:39:05.549Z,5.20
2019-01-16T05:42:03.278Z,5.30
2019-01-16T05:44:57.074Z,5.30
2019-01-16T05:47:48.545Z,5.30
2019-01-16T05:50:39.359Z,5.40
2019-01-16T05:53:42.505Z,5.40
2019-01-16T05:56:24.204Z,5.30
2019-01-16T05:59:04.104Z,5.30
2019-01-16T06:01:51.993Z,5.30
2019-01-16T06:04:29.864Z,5.30
2019-01-16T06:07:23.260Z,5.30
2019-01-16T06:10:00.107Z,5.30
2019-01-16T06:13:06.772Z,5.30
2019-01-16T06:15:45.643Z,5.40
2019-01-16T06:18:36.857Z,5.50
2019-01-16T06:21:23.909Z,5.50
2019-01-16T06:24:21.051Z,5.50
2019-01-16T06:27:03.010Z,5.50
2019-01-16T06:29:39.563Z,5.50
2019-01-16T06:32:26.377Z,5.50
2019-01-16T06:35:09.083Z,5.50
2019-01-16T06:37:56.268Z,5.50
2019-01-16T06:40:47.425Z,5.50
2019-01-16T06:43:34.348Z,5.50
2019-01-16T06:46:15.039Z,5.40
2019-01-16T06:49:01.923Z,5.40
2019-01-16T06:51:45.596Z,5.50
2019-01-16T06:54:31.105Z,5.40
2019-01-16T06:57:07.228Z,5.40
2019-01-16T06:59:45.311Z,5.40
2019-01-16T07:02:46.129Z,5.50
2019-01-16T07:05:32.898Z,5.50
2019-01-16T07:08:09.422Z,5.50
2019-01-16T07:10:49.688Z,5.40
2019-01-16T07:13:45.235Z,5.50
2019-01-16T07:16:31.784Z,5.50
2019-01-16T07:19:13.723Z,5.50
2019-01-16T07:22:07.586Z,5.50
2019-01-16T07:24:48.447Z,5.40
2019-01-16T07:27:35.054Z,5.40
2019-01-16T07:30:40.019Z,5.40
2019-01-16T07:33:23.871Z,5.40
2019-01-16T07:36:05.964Z,5.40
2019-01-16T07:38:56.632Z,5.40
2019-01-16T07:41:44.555Z,5.40
2019-01-16T07:44:29.874Z,5.40
2019-01-16T07:47:15.046Z,5.50
2019-01-16T07:50:03.976Z,5.50
2019-01-16T07:53:01.019Z,5.50
2019-01-16T07:55:49.006Z,5.50
2019-01-16T07:58:36.985Z,5.50
2019-01-16T08:01:32.675Z,5.50
2019-01-16T08:04:19.596Z,5.50
2019-01-16T08:07:06.463Z,5.50
2019-01-16T08:09:55.280Z,5.50
2019-01-16T08:12:42.871Z,5.50
2019-01-16T08:15:49.463Z,5.50
2019-01-16T08:18:43.421Z,5.50
2019-01-16T08:21:36.216Z,5.60
2019-01-16T08:24:18.537Z,5.60
2019-01-16T08:27:04.939Z,5.60
2019-01-16T08:29:48.309Z,5.60
2019-01-16T08:32:26.347Z,5.70
2019-01-16T08:35:12.730Z,5.70
2019-01-16T08:38:06.881Z,5.70
2019-01-16T08:40:57.898Z,5.70
2019-01-16T08:43:53.805Z,5.80
2019-01-16T08:46:36.191Z,5.80
2019-01-16T08:49:28.202Z,5.80
2019-01-16T08:52:23.065Z,5.90
2019-01-16T08:55:10.048Z,6.00
2019-01-16T08:58:13.184Z,5.90
2019-01-16T09:01:04.062Z,6.00
2019-01-16T09:03:46.179Z,6.00
2019-01-16T09:06:33.697Z,6.10
2019-01-16T09:09:20.567Z,6.00
2019-01-16T09:12:05.778Z,6.20
2019-01-16T09:14:59.579Z,6.10
2019-01-16T09:18:02.735Z,6.20
2019-01-16T09:20:56.702Z,6.20
2019-01-16T09:23:51.000Z,6.20
2019-01-16T09:26:37.988Z,6.30
2019-01-16T09:29:18.295Z,6.30
2019-01-16T09:31:58.213Z,6.20
2019-01-16T09:34:45.199Z,6.20
2019-01-16T09:37:33.321Z,6.20
2019-01-16T09:40:24.824Z,6.20
2019-01-16T09:43:11.437Z,6.20
2019-01-16T09:46:14.860Z,6.20
2019-01-16T09:49:09.071Z,6.30
2019-01-16T09:51:49.842Z,6.30
2019-01-16T09:54:36.730Z,6.20
2019-01-16T09:57:31.056Z,6.20
2019-01-16T10:00:19.031Z,6.20
2019-01-16T10:03:12.721Z,6.30
2019-01-16T10:06:10.044Z,6.30
2019-01-16T10:09:08.964Z,6.20
2019-01-16T10:11:53.593Z,6.30
2019-01-16T10:14:42.461Z,6.30
2019-01-16T10:17:27.760Z,6.30
2019-01-16T10:20:15.675Z,6.50
2019-01-16T10:23:00.943Z,6.50
2019-01-16T10:25:47.903Z,6.70
2019-01-16T10:28:28.083Z,6.70
2019-01-16T10:31:18.862Z,6.70
2019-01-16T10:34:05.616Z,7.10
2019-01-16T10:36:52.556Z,7.60
2019-01-16T10:39:43.611Z,7.60
2019-01-16T10:42:24.272Z,7.50
2019-01-16T10:45:24.407Z,7.20
2019-01-16T10:48:15.064Z,7.30
2019-01-16T10:50:53.996Z,7.70
2019-01-16T10:53:32.368Z,7.20
2019-01-16T10:56:13.785Z,6.80
2019-01-16T10:58:58.781Z,6.60
2019-01-16T11:01:38.369Z,6.50
2019-01-16T11:04:26.441Z,6.40
2019-01-16T11:07:12.477Z,6.50
2019-01-16T11:09:53.476Z,6.50
2019-01-16T11:12:40.408Z,6.60
2019-01-16T11:15:44.240Z,6.50
2019-01-16T11:18:31.468Z,6.60
2019-01-16T11:21:13.619Z,6.60
2019-01-16T11:24:10.891Z,6.50
2019-01-16T11:26:58.956Z,6.60
2019-01-16T11:29:47.003Z,6.70
2019-01-16T11:32:34.953Z,6.70
2019-01-16T11:35:25.627Z,6.70
2019-01-16T11:38:12.652Z,6.80
2019-01-16T11:41:06.715Z,7.30
2019-01-16T11:43:57.447Z,7.40
2019-01-16T11:46:44.388Z,7.40
2019-01-16T11:49:31.419Z,7.10
2019-01-16T11:52:20.450Z,7.00
2019-01-16T11:55:17.719Z,6.80
2019-01-16T11:57:56.880Z,6.80
2019-01-16T12:00:39.985Z,6.80
2019-01-16T12:03:19.547Z,6.80
2019-01-16T12:06:07.638Z,6.80
2019-01-16T12:08:48.783Z,6.90
2019-01-16T12:11:36.120Z,6.80
2019-01-16T12:14:26.924Z,6.80
2019-01-16T12:17:33.067Z,6.80
2019-01-16T12:20:20.812Z,6.80
2019-01-16T12:23:08.840Z,6.80
2019-01-16T12:25:46.768Z,6.70
2019-01-16T12:28:33.663Z,6.60
2019-01-16T12:31:26.152Z,6.50
2019-01-16T12:34:17.017Z,6.40
2019-01-16T12:37:14.584Z,6.50
2019-01-16T12:40:01.554Z,6.50
2019-01-16T12:42:58.782Z,6.40
2019-01-16T12:45:50.828Z,6.40
2019-01-16T12:48:30.034Z,6.50
2019-01-16T12:51:09.473Z,6.40
2019-01-16T12:53:56.472Z,6.50
2019-01-16T12:56:42.280Z,6.50
2019-01-16T12:59:29.198Z,6.40
2019-01-16T13:02:10.087Z,6.40
2019-01-16T13:04:51.426Z,6.30
2019-01-16T13:07:37.659Z,6.40
2019-01-16T13:10:23.071Z,6.40
2019-01-16T13:13:03.921Z,6.50
2019-01-16T13:15:51.256Z,6.50
2019-01-16T13:18:42.191Z,6.50
2019-01-16T13:21:30.912Z,6.50
2019-01-16T13:24:12.026Z,6.50
2019-01-16T13:27:05.820Z,6.40
2019-01-16T13:29:44.822Z,6.40
2019-01-16T13:32:26.542Z,6.40
2019-01-16T13:35:23.537Z,6.40
2019-01-16T13:38:06.498Z,6.40
2019-01-16T13:40:43.196Z,6.50
2019-01-16T13:43:37.625Z,6.40
2019-01-16T13:46:24.484Z,6.50
2019-01-16T13:49:24.581Z,6.40
2019-01-16T13:52:19.088Z,6.40
2019-01-16T13:55:01.029Z,6.50
2019-01-16T13:57:52.162Z,6.40
2019-01-16T14:00:48.438Z,6.30
2019-01-16T14:03:39.244Z,6.20
2019-01-16T14:06:25.787Z,6.20
2019-01-16T14:09:16.782Z,6.30
2019-01-16T14:12:03.219Z,6.30
2019-01-16T14:15:01.671Z,6.30
2019-01-16T14:17:48.268Z,6.40
2019-01-16T14:20:34.857Z,6.40
2019-01-16T14:23:19.142Z,6.40
2019-01-16T14:26:06.102Z,6.40
2019-01-16T14:28:52.809Z,6.40
2019-01-16T14:31:35.370Z,6.40
2019-01-16T14:34:24.787Z,6.30
2019-01-16T14:37:23.159Z,6.30
2019-01-16T14:40:14.681Z,6.30
2019-01-16T14:43:05.730Z,6.20
2019-01-16T14:45:53.271Z,6.10
2019-01-16T14:48:56.364Z,6.10
2019-01-16T14:51:42.632Z,6.00
2019-01-16T14:54:31.421Z,6.10
2019-01-16T14:57:18.499Z,6.10
2019-01-16T15:00:10.470Z,6.00
2019-01-16T15:02:58.447Z,6.00
2019-01-16T15:05:52.161Z,6.00
2019-01-16T15:08:52.856Z,6.00
2019-01-16T15:11:59.640Z,6.00
2019-01-16T15:14:38.769Z,5.90
2019-01-16T15:17:28.191Z,5.90
2019-01-16T15:20:15.460Z,5.80
2019-01-16T15:22:51.201Z,5.80
2019-01-16T15:25:37.988Z,5.80
2019-01-16T15:28:20.177Z,5.80
2019-01-16T15:31:15.050Z,5.80
2019-01-16T15:34:05.070Z,5.70
2019-01-16T15:36:51.660Z,5.80
2019-01-16T15:39:49.604Z,5.70
2019-01-16T15:42:36.630Z,5.70
2019-01-16T15:45:17.664Z,5.60
2019-01-16T15:47:59.240Z,5.60
2019-01-16T15:50:46.458Z,5.60
2019-01-16T15:53:41.433Z,5.50
2019-01-16T15:56:29.591Z,5.50
2019-01-16T15:59:21.454Z,5.50
2019-01-16T16:02:08.541Z,5.30
2019-01-16T16:04:50.488Z,5.30
2019-01-16T16:07:47.269Z,5.40
2019-01-16T16:10:35.247Z,5.30
2019-01-16T16:13:21.873Z,5.30
2019-01-16T16:16:09.925Z,5.20
2019-01-16T16:18:52.203Z,5.00
2019-01-16T16:21:43.208Z,5.00
2019-01-16T16:24:30.239Z,5.00
2019-01-16T16:27:12.082Z,5.10
2019-01-16T16:30:00.460Z,5.10
2019-01-16T16:32:48.010Z,5.00
2019-01-16T16:35:35.216Z,5.00
2019-01-16T16:38:16.580Z,4.90
2019-01-16T16:41:07.591Z,4.70
2019-01-16T16:43:58.502Z,4.80
2019-01-16T16:46:54.124Z,4.70
2019-01-16T16:49:50.585Z,4.60
2019-01-16T16:52:39.850Z,4.50
2019-01-16T16:55:26.861Z,4.70
2019-01-16T16:58:13.543Z,4.70
2019-01-16T17:01:03.536Z,4.40
2019-01-16T17:03:50.499Z,4.20
2019-01-16T17:06:37.476Z,4.00
2019-01-16T17:09:33.058Z,3.80
2019-01-16T17:12:11.125Z,3.70
2019-01-16T17:14:53.867Z,3.70
2019-01-16T17:17:40.509Z,3.90
2019-01-16T17:20:27.862Z,3.90
2019-01-16T17:23:14.561Z,4.10
2019-01-16T17:25:56.375Z,4.10
2019-01-16T17:28:50.326Z,4.10
2019-01-16T17:31:31.300Z,4.10
2019-01-16T17:34:18.070Z,4.10
2019-01-16T17:37:03.272Z,4.00
2019-01-16T17:39:47.841Z,3.80
2019-01-16T17:42:27.611Z,3.60
2019-01-16T17:45:14.406Z,3.40
2019-01-16T17:47:56.513Z,3.40
2019-01-16T17:50:44.794Z,3.30
2019-01-16T17:53:47.889Z,3.30
2019-01-16T17:56:33.509Z,3.30
2019-01-16T17:59:19.935Z,3.00
2019-01-16T18:02:01.641Z,2.80
2019-01-16T18:04:38.100Z,2.80
2019-01-16T18:07:23.449Z,2.60
2019-01-16T18:10:05.494Z,2.60
2019-01-16T18:12:56.569Z,2.60
2019-01-16T18:15:56.477Z,2.60
2019-01-16T18:18:44.835Z,2.60
2019-01-16T18:21:26.495Z,2.60
2019-01-16T18:24:12.864Z,2.60
2019-01-16T18:26:55.412Z,2.60
2019-01-16T18:29:44.122Z,2.50
2019-01-16T18:32:44.227Z,2.50
2019-01-16T18:35:23.160Z,2.40
2019-01-16T18:38:09.840Z,2.30
2019-01-16T18:40:56.925Z,2.20
2019-01-16T18:43:44.030Z,2.30
2019-01-16T18:46:30.814Z,2.40
2019-01-16T18:49:17.608Z,2.40
2019-01-16T18:52:03.599Z,2.50
2019-01-16T18:54:40.584Z,2.40
2019-01-16T18:57:26.173Z,2.30
2019-01-16T19:00:17.276Z,2.40
2019-01-16T19:03:04.011Z,2.40
2019-01-16T19:05:54.333Z,2.60
2019-01-16T19:08:54.168Z,2.60
2019-01-16T19:11:32.208Z,2.60
2019-01-16T19:14:19.035Z,2.90
2019-01-16T19:17:06.088Z,2.80
2019-01-16T19:19:54.808Z,2.70
2019-01-16T19:22:43.231Z,2.70
2019-01-16T19:25:23.223Z,2.60
2019-01-16T19:28:10.257Z,2.50
2019-01-16T19:30:55.083Z,2.50
2019-01-16T19:33:43.408Z,2.50
2019-01-16T19:36:30.471Z,2.60
2019-01-16T19:39:17.291Z,2.40
2019-01-16T19:42:03.851Z,2.40
2019-01-16T19:44:55.591Z,2.30
2019-01-16T19:47:42.903Z,2.40
2019-01-16T19:50:32.488Z,2.30
2019-01-16T19:53:10.773Z,2.40
2019-01-16T19:55:57.317Z,2.40
2019-01-16T19:58:50.327Z,2.30
2019-01-16T20:01:50.958Z,2.40
2019-01-16T20:04:38.700Z,2.50
2019-01-16T20:07:35.960Z,2.50
2019-01-16T20:10:27.193Z,2.60
2019-01-16T20:13:15.429Z,2.60
2019-01-16T20:16:15.267Z,2.60
2019-01-16T20:18:57.431Z,2.60
2019-01-16T20:21:44.516Z,2.70
2019-01-16T20:24:45.635Z,2.70
2019-01-16T20:27:32.484Z,2.70
2019-01-16T20:30:18.795Z,2.70
2019-01-16T20:32:53.958Z,2.70
2019-01-16T20:35:31.139Z,2.80
2019-01-16T20:38:11.904Z,2.80
2019-01-16T20:41:15.352Z,2.80
2019-01-16T20:44:00.027Z,2.80
2019-01-16T20:46:48.106Z,2.80
2019-01-16T20:49:43.545Z,2.80
2019-01-16T20:52:32.366Z,2.80
2019-01-16T20:55:28.140Z,2.90
2019-01-16T20:58:14.899Z,3.00
2019-01-16T21:01:02.336Z,3.00
2019-01-16T21:03:56.939Z,2.90
2019-01-16T21:07:00.371Z,2.80
2019-01-16T21:09:35.635Z,2.90
2019-01-16T21:12:31.548Z,2.80
2019-01-16T21:15:16.824Z,2.80
2019-01-16T21:18:16.879Z,2.90
2019-01-16T21:20:54.855Z,2.80
2019-01-16T21:23:52.281Z,2.80
2019-01-16T21:26:38.748Z,2.80
2019-01-16T21:29:19.564Z,2.80
2019-01-16T21:31:58.588Z,2.80
2019-01-16T21:34:48.079Z,2.90
2019-01-16T21:37:31.087Z,2.90
2019-01-16T21:40:20.262Z,2.90
2019-01-16T21:43:08.200Z,2.80
2019-01-16T21:45:59.215Z,2.80
2019-01-16T21:48:59.562Z,2.80
2019-01-16T21:51:59.570Z,2.80
2019-01-16T21:54:56.352Z,2.80
2019-01-16T21:57:39.837Z,2.80
2019-01-16T22:00:47.149Z,2.80
2019-01-16T22:03:28.010Z,2.80
2019-01-16T22:06:16.032Z,2.80
2019-01-16T22:09:02.666Z,2.80
2019-01-16T22:11:49.725Z,2.70
2019-01-16T22:14:30.742Z,2.70
2019-01-16T22:17:17.692Z,2.70
2019-01-16T22:19:59.315Z,2.60
2019-01-16T22:22:46.228Z,2.60
2019-01-16T22:25:52.575Z,2.60
2019-01-16T22:28:47.502Z,2.60
2019-01-16T22:31:37.264Z,2.50
2019-01-16T22:34:19.941Z,2.50
2019-01-16T22:37:08.896Z,2.50
2019-01-16T22:39:50.284Z,2.50
2019-01-16T22:42:38.229Z,2.40
2019-01-16T22:45:25.907Z,2.40
2019-01-16T22:48:16.089Z,2.40
2019-01-16T22:51:03.057Z,2.30
2019-01-16T22:53:50.287Z,2.40
2019-01-16T22:56:39.604Z,2.40
2019-01-16T22:59:17.768Z,2.30
2019-01-16T23:01:57.036Z,2.40
2019-01-16T23:04:44.147Z,2.40
2019-01-16T23:07:38.460Z,2.40
2019-01-16T23:10:24.997Z,2.20
2019-01-16T23:13:09.208Z,2.30
2019-01-16T23:16:01.058Z,2.20
2019-01-16T23:18:42.714Z,2.20
2019-01-16T23:21:33.905Z,2.20
2019-01-16T23:24:17.772Z,2.30
2019-01-16T23:26:59.263Z,2.30
2019-01-16T23:29:53.439Z,2.30
2019-01-16T23:32:36.836Z,2.30
2019-01-16T23:35:25.521Z,2.30
2019-01-16T23:38:32.210Z,2.30
2019-01-16T23:41:17.590Z,2.30
2019-01-16T23:44:14.829Z,2.30
2019-01-16T23:46:51.224Z,2.30
2019-01-16T23:49:45.249Z,2.30
2019-01-16T23:52:23.223Z,2.20
2019-01-16T23:55:10.081Z,2.30
2019-01-16T23:57:56.715Z,2.20
